Pelsor, Arkansas
Current Conditions -  °F | °C
As of 11:32 AM on Monday 22 Dec 2014 (Local Time) from KRUE Reporting Station
Haze Haze  
Wind Chill: 10°   Ceiling: 900
Heat Index: 10°   Visibility: 4mi
Dew Point:   Wind: 6mph
Humidity: 93%   Direction: 90°E
Pressure: 29.62"   Gusts: NA
Location:  35.7°N, 93.08°W
Report Text: KRUE 221732Z AUTO 09005KT 4SM BR SCT004 OVC009 10/09 A2962 RMK AO2 RAB12E32 P0001 T01000089
Loading
Personal Weather Stations






























Interactive Weather Map New forecast layout! Learn more

10-Day Weather Forecast

Advertisements
Track Severe Weather on mobile